sensor_id;sensor_type;location;lat;lon;timestamp;P1;durP1;ratioP1;P2;durP2;ratioP2
83732;SDS011;73710;49.968;8.338;2024-02-14T05:06:23;2.72;;;1.80;;
83732;SDS011;73710;49.968;8.338;2024-02-14T05:08:48;6.53;;;2.90;;
83732;SDS011;73710;49.968;8.338;2024-02-14T05:11:14;3.95;;;1.77;;
83732;SDS011;73710;49.968;8.338;2024-02-14T05:13:39;4.32;;;2.17;;
83732;SDS011;73710;49.968;8.338;2024-02-14T05:16:06;6.55;;;2.20;;
83732;SDS011;73710;49.968;8.338;2024-02-14T05:18:35;4.90;;;1.83;;
83732;SDS011;73710;49.968;8.338;2024-02-14T05:21:01;7.53;;;2.30;;
83732;SDS011;73710;49.968;8.338;2024-02-14T05:23:27;3.58;;;1.65;;
83732;SDS011;73710;49.968;8.338;2024-02-14T05:25:53;3.03;;;1.77;;
83732;SDS011;73710;49.968;8.338;2024-02-14T05:28:18;4.47;;;2.22;;
83732;SDS011;73710;49.968;8.338;2024-02-14T05:30:44;3.92;;;1.55;;
83732;SDS011;73710;49.968;8.338;2024-02-14T05:33:10;4.90;;;1.65;;
83732;SDS011;73710;49.968;8.338;2024-02-14T05:35:36;5.00;;;1.83;;
83732;SDS011;73710;49.968;8.338;2024-02-14T05:38:01;5.25;;;1.75;;
83732;SDS011;73710;49.968;8.338;2024-02-14T05:40:26;3.90;;;2.45;;
83732;SDS011;73710;49.968;8.338;2024-02-14T05:42:52;4.00;;;2.17;;
83732;SDS011;73710;49.968;8.338;2024-02-14T05:45:17;3.83;;;2.20;;
83732;SDS011;73710;49.968;8.338;2024-02-14T05:47:43;3.75;;;1.75;;
83732;SDS011;73710;49.968;8.338;2024-02-14T05:50:08;3.78;;;1.52;;
83732;SDS011;73710;49.968;8.338;2024-02-14T05:52:36;4.90;;;2.30;;
83732;SDS011;73710;49.968;8.338;2024-02-14T05:55:02;2.38;;;1.67;;
83732;SDS011;73710;49.968;8.338;2024-02-14T05:57:28;2.05;;;1.35;;
83732;SDS011;73710;49.968;8.338;2024-02-14T05:59:54;3.05;;;1.55;;
83732;SDS011;73710;49.968;8.338;2024-02-14T06:02:19;2.40;;;1.53;;
83732;SDS011;73710;49.968;8.338;2024-02-14T06:04:44;7.73;;;2.27;;
83732;SDS011;73710;49.968;8.338;2024-02-14T06:07:09;5.13;;;2.00;;
83732;SDS011;73710;49.968;8.338;2024-02-14T06:09:36;2.35;;;1.38;;
83732;SDS011;73710;49.968;8.338;2024-02-14T06:12:02;2.50;;;1.45;;
83732;SDS011;73710;49.968;8.338;2024-02-14T06:14:27;3.00;;;1.40;;
83732;SDS011;73710;49.968;8.338;2024-02-14T06:16:54;3.53;;;1.48;;
83732;SDS011;73710;49.968;8.338;2024-02-14T06:19:20;3.20;;;1.73;;
83732;SDS011;73710;49.968;8.338;2024-02-14T06:21:45;2.77;;;1.27;;
83732;SDS011;73710;49.968;8.338;2024-02-14T06:24:10;2.13;;;1.10;;
83732;SDS011;73710;49.968;8.338;2024-02-14T06:26:38;5.78;;;1.13;;
83732;SDS011;73710;49.968;8.338;2024-02-14T06:29:03;1.38;;;0.80;;
83732;SDS011;73710;49.968;8.338;2024-02-14T06:31:29;1.80;;;1.00;;
83732;SDS011;73710;49.968;8.338;2024-02-14T06:33:54;2.20;;;0.88;;
83732;SDS011;73710;49.968;8.338;2024-02-14T06:36:20;1.50;;;1.20;;
83732;SDS011;73710;49.968;8.338;2024-02-14T06:38:45;3.73;;;0.70;;
83732;SDS011;73710;49.968;8.338;2024-02-14T06:41:11;2.90;;;0.90;;
83732;SDS011;73710;49.968;8.338;2024-02-14T06:43:37;2.13;;;1.35;;
83732;SDS011;73710;49.968;8.338;2024-02-14T06:46:04;2.72;;;1.25;;
83732;SDS011;73710;49.968;8.338;2024-02-14T06:48:30;3.15;;;1.73;;
83732;SDS011;73710;49.968;8.338;2024-02-14T06:50:55;4.88;;;1.40;;
83732;SDS011;73710;49.968;8.338;2024-02-14T06:53:21;1.83;;;0.80;;
83732;SDS011;73710;49.968;8.338;2024-02-14T06:55:47;5.60;;;1.38;;
83732;SDS011;73710;49.968;8.338;2024-02-14T06:58:13;2.83;;;1.10;;
83732;SDS011;73710;49.968;8.338;2024-02-14T07:00:38;3.97;;;1.20;;
83732;SDS011;73710;49.968;8.338;2024-02-14T07:03:04;6.75;;;1.23;;
83732;SDS011;73710;49.968;8.338;2024-02-14T07:05:30;8.32;;;1.88;;
83732;SDS011;73710;49.968;8.338;2024-02-14T07:07:55;3.60;;;1.30;;
83732;SDS011;73710;49.968;8.338;2024-02-14T07:10:21;2.97;;;1.25;;
83732;SDS011;73710;49.968;8.338;2024-02-14T07:12:47;3.97;;;1.63;;
83732;SDS011;73710;49.968;8.338;2024-02-14T07:15:12;6.70;;;1.23;;
83732;SDS011;73710;49.968;8.338;2024-02-14T07:17:38;1.20;;;0.60;;
83732;SDS011;73710;49.968;8.338;2024-02-14T07:20:03;2.78;;;0.85;;
83732;SDS011;73710;49.968;8.338;2024-02-14T07:22:30;4.70;;;0.85;;
83732;SDS011;73710;49.968;8.338;2024-02-14T07:24:59;2.22;;;0.88;;
83732;SDS011;73710;49.968;8.338;2024-02-14T07:27:24;1.58;;;0.60;;
83732;SDS011;73710;49.968;8.338;2024-02-14T07:29:49;8.15;;;1.20;;
83732;SDS011;73710;49.968;8.338;2024-02-14T07:32:15;1.40;;;0.68;;
83732;SDS011;73710;49.968;8.338;2024-02-14T07:34:41;1.58;;;0.80;;
83732;SDS011;73710;49.968;8.338;2024-02-14T07:37:07;1.17;;;0.85;;
83732;SDS011;73710;49.968;8.338;2024-02-14T07:39:32;2.35;;;0.85;;
83732;SDS011;73710;49.968;8.338;2024-02-14T07:42:00;1.40;;;0.80;;
83732;SDS011;73710;49.968;8.338;2024-02-14T07:44:25;1.00;;;0.60;;
83732;SDS011;73710;49.968;8.338;2024-02-14T07:46:51;3.03;;;0.77;;
83732;SDS011;73710;49.968;8.338;2024-02-14T07:49:17;2.88;;;0.70;;
83732;SDS011;73710;49.968;8.338;2024-02-14T07:51:42;3.75;;;0.80;;
83732;SDS011;73710;49.968;8.338;2024-02-14T07:54:08;2.60;;;0.60;;
83732;SDS011;73710;49.968;8.338;2024-02-14T07:56:33;1.50;;;0.60;;
83732;SDS011;73710;49.968;8.338;2024-02-14T07:58:58;1.63;;;0.80;;
83732;SDS011;73710;49.968;8.338;2024-02-14T08:01:25;7.57;;;1.17;;
83732;SDS011;73710;49.968;8.338;2024-02-14T08:03:50;4.70;;;0.90;;
83732;SDS011;73710;49.968;8.338;2024-02-14T08:06:16;2.47;;;0.85;;
83732;SDS011;73710;49.968;8.338;2024-02-14T08:08:41;1.08;;;0.65;;
83732;SDS011;73710;49.968;8.338;2024-02-14T08:11:07;1.48;;;0.65;;
83732;SDS011;73710;49.968;8.338;2024-02-14T08:13:32;2.17;;;1.15;;
83732;SDS011;73710;49.968;8.338;2024-02-14T08:15:57;6.10;;;1.10;;
83732;SDS011;73710;49.968;8.338;2024-02-14T08:18:23;2.63;;;1.13;;
83732;SDS011;73710;49.968;8.338;2024-02-14T08:20:49;3.05;;;0.85;;
83732;SDS011;73710;49.968;8.338;2024-02-14T08:23:14;3.45;;;1.20;;
83732;SDS011;73710;49.968;8.338;2024-02-14T08:25:40;4.63;;;1.20;;
83732;SDS011;73710;49.968;8.338;2024-02-14T08:28:09;7.03;;;0.82;;
83732;SDS011;73710;49.968;8.338;2024-02-14T08:30:34;1.20;;;0.65;;
83732;SDS011;73710;49.968;8.338;2024-02-14T08:33:00;2.55;;;0.50;;
83732;SDS011;73710;49.968;8.338;2024-02-14T08:35:25;2.45;;;1.25;;
83732;SDS011;73710;49.968;8.338;2024-02-14T08:37:50;1.67;;;0.70;;
83732;SDS011;73710;49.968;8.338;2024-02-14T08:40:16;3.63;;;1.35;;
83732;SDS011;73710;49.968;8.338;2024-02-14T08:42:42;1.45;;;0.85;;
83732;SDS011;73710;49.968;8.338;2024-02-14T08:45:07;5.30;;;1.20;;
83732;SDS011;73710;49.968;8.338;2024-02-14T08:47:34;2.40;;;0.93;;
83732;SDS011;73710;49.968;8.338;2024-02-14T08:49:59;2.90;;;1.10;;
83732;SDS011;73710;49.968;8.338;2024-02-14T08:52:25;1.27;;;0.60;;
83732;SDS011;73710;49.968;8.338;2024-02-14T08:54:50;1.10;;;0.68;;
83732;SDS011;73710;49.968;8.338;2024-02-14T08:57:16;3.70;;;0.80;;
83732;SDS011;73710;49.968;8.338;2024-02-14T08:59:43;2.03;;;0.85;;
83732;SDS011;73710;49.968;8.338;2024-02-14T09:02:12;1.77;;;0.75;;
83732;SDS011;73710;49.968;8.338;2024-02-14T09:04:38;1.42;;;0.57;;
83732;SDS011;73710;49.968;8.338;2024-02-14T09:07:04;2.90;;;0.93;;
83732;SDS011;73710;49.968;8.338;2024-02-14T09:09:29;2.83;;;1.10;;
83732;SDS011;73710;49.968;8.338;2024-02-14T09:11:55;4.78;;;1.13;;
83732;SDS011;73710;49.968;8.338;2024-02-14T09:14:20;4.17;;;0.67;;
83732;SDS011;73710;49.968;8.338;2024-02-14T09:16:45;2.22;;;1.25;;
83732;SDS011;73710;49.968;8.338;2024-02-14T09:19:11;3.15;;;1.13;;
83732;SDS011;73710;49.968;8.338;2024-02-14T09:21:37;1.95;;;0.80;;
83732;SDS011;73710;49.968;8.338;2024-02-14T09:24:04;6.93;;;1.30;;
83732;SDS011;73710;49.968;8.338;2024-02-14T09:26:30;3.30;;;1.58;;
83732;SDS011;73710;49.968;8.338;2024-02-14T09:28:55;1.13;;;0.60;;
83732;SDS011;73710;49.968;8.338;2024-02-14T09:31:21;2.70;;;1.00;;
83732;SDS011;73710;49.968;8.338;2024-02-14T09:33:47;4.03;;;1.48;;
83732;SDS011;73710;49.968;8.338;2024-02-14T09:36:13;2.17;;;1.17;;
83732;SDS011;73710;49.968;8.338;2024-02-14T09:38:40;3.60;;;1.40;;
83732;SDS011;73710;49.968;8.338;2024-02-14T09:41:09;2.15;;;0.80;;
83732;SDS011;73710;49.968;8.338;2024-02-14T09:43:51;5.35;;;0.98;;
83732;SDS011;73710;49.968;8.338;2024-02-14T09:46:17;0.98;;;0.85;;
83732;SDS011;73710;49.968;8.338;2024-02-14T09:48:43;2.50;;;0.93;;
83732;SDS011;73710;49.968;8.338;2024-02-14T09:51:10;3.67;;;1.27;;
83732;SDS011;73710;49.968;8.338;2024-02-14T09:53:37;3.05;;;1.00;;
83732;SDS011;73710;49.968;8.338;2024-02-14T09:56:04;3.67;;;1.20;;
83732;SDS011;73710;49.968;8.338;2024-02-14T09:58:31;0.82;;;0.63;;
83732;SDS011;73710;49.968;8.338;2024-02-14T10:01:00;3.33;;;0.80;;
83732;SDS011;73710;49.968;8.338;2024-02-14T10:10:47;1.65;;;0.70;;
83732;SDS011;73710;49.968;8.338;2024-02-14T10:13:12;4.88;;;0.90;;
83732;SDS011;73710;49.968;8.338;2024-02-14T10:15:37;3.75;;;1.27;;
83732;SDS011;73710;49.968;8.338;2024-02-14T10:18:03;4.03;;;1.17;;
83732;SDS011;73710;49.968;8.338;2024-02-14T10:20:29;4.03;;;0.85;;
83732;SDS011;73710;49.968;8.338;2024-02-14T10:23:02;1.17;;;0.70;;
83732;SDS011;73710;49.968;8.338;2024-02-14T10:25:28;1.27;;;0.43;;
83732;SDS011;73710;49.968;8.338;2024-02-14T10:27:54;1.60;;;0.80;;
83732;SDS011;73710;49.968;8.338;2024-02-14T10:30:20;1.15;;;0.52;;
83732;SDS011;73710;49.968;8.338;2024-02-14T10:32:46;1.88;;;0.70;;
83732;SDS011;73710;49.968;8.338;2024-02-14T10:35:15;0.93;;;0.57;;
83732;SDS011;73710;49.968;8.338;2024-02-14T10:37:41;4.35;;;0.65;;
83732;SDS011;73710;49.968;8.338;2024-02-14T10:40:07;1.27;;;0.75;;
83732;SDS011;73710;49.968;8.338;2024-02-14T10:42:34;1.13;;;0.50;;
83732;SDS011;73710;49.968;8.338;2024-02-14T10:45:00;2.00;;;0.85;;
83732;SDS011;73710;49.968;8.338;2024-02-14T10:47:30;1.80;;;0.55;;
83732;SDS011;73710;49.968;8.338;2024-02-14T10:50:00;1.58;;;0.95;;
83732;SDS011;73710;49.968;8.338;2024-02-14T10:52:31;1.10;;;0.75;;
83732;SDS011;73710;49.968;8.338;2024-02-14T10:54:59;1.13;;;0.40;;
83732;SDS011;73710;49.968;8.338;2024-02-14T10:57:27;1.73;;;0.63;;
83732;SDS011;73710;49.968;8.338;2024-02-14T10:59:54;1.55;;;0.55;;
83732;SDS011;73710;49.968;8.338;2024-02-14T11:02:20;1.50;;;0.52;;
83732;SDS011;73710;49.968;8.338;2024-02-14T11:04:46;1.88;;;0.82;;
83732;SDS011;73710;49.968;8.338;2024-02-14T11:07:13;0.90;;;0.43;;
83732;SDS011;73710;49.968;8.338;2024-02-14T11:09:40;1.38;;;0.68;;
83732;SDS011;73710;49.968;8.338;2024-02-14T11:12:08;1.63;;;0.60;;
83732;SDS011;73710;49.968;8.338;2024-02-14T11:14:35;0.40;;;0.30;;
83732;SDS011;73710;49.968;8.338;2024-02-14T11:17:04;1.23;;;0.77;;
83732;SDS011;73710;49.968;8.338;2024-02-14T11:19:34;1.58;;;0.63;;
83732;SDS011;73710;49.968;8.338;2024-02-14T11:22:20;2.55;;;0.63;;
83732;SDS011;73710;49.968;8.338;2024-02-14T11:24:46;1.77;;;0.50;;
83732;SDS011;73710;49.968;8.338;2024-02-14T11:27:12;1.23;;;0.60;;
83732;SDS011;73710;49.968;8.338;2024-02-14T11:29:50;3.20;;;0.60;;
83732;SDS011;73710;49.968;8.338;2024-02-14T11:32:17;1.77;;;0.57;;
83732;SDS011;73710;49.968;8.338;2024-02-14T11:34:43;1.95;;;0.70;;
83732;SDS011;73710;49.968;8.338;2024-02-14T11:37:09;1.92;;;0.70;;
83732;SDS011;73710;49.968;8.338;2024-02-14T11:39:34;1.00;;;0.63;;
83732;SDS011;73710;49.968;8.338;2024-02-14T11:42:00;2.08;;;0.80;;
83732;SDS011;73710;49.968;8.338;2024-02-14T11:44:25;3.28;;;1.00;;
83732;SDS011;73710;49.968;8.338;2024-02-14T11:46:51;1.38;;;0.73;;
83732;SDS011;73710;49.968;8.338;2024-02-14T11:49:17;1.10;;;0.40;;
83732;SDS011;73710;49.968;8.338;2024-02-14T11:51:43;1.85;;;0.77;;
83732;SDS011;73710;49.968;8.338;2024-02-14T11:54:09;1.92;;;0.80;;
83732;SDS011;73710;49.968;8.338;2024-02-14T11:56:38;3.17;;;0.95;;
83732;SDS011;73710;49.968;8.338;2024-02-14T11:59:04;2.10;;;1.00;;
83732;SDS011;73710;49.968;8.338;2024-02-14T12:01:31;1.60;;;0.98;;
83732;SDS011;73710;49.968;8.338;2024-02-14T12:04:02;2.88;;;1.13;;
83732;SDS011;73710;49.968;8.338;2024-02-14T12:06:30;2.78;;;0.90;;
83732;SDS011;73710;49.968;8.338;2024-02-14T12:08:57;2.28;;;0.88;;
83732;SDS011;73710;49.968;8.338;2024-02-14T12:11:30;4.07;;;1.33;;
83732;SDS011;73710;49.968;8.338;2024-02-14T12:14:00;3.53;;;1.33;;
83732;SDS011;73710;49.968;8.338;2024-02-14T12:16:27;2.53;;;1.50;;
83732;SDS011;73710;49.968;8.338;2024-02-14T12:19:09;6.28;;;2.10;;
83732;SDS011;73710;49.968;8.338;2024-02-14T12:21:40;1.50;;;0.73;;
83732;SDS011;73710;49.968;8.338;2024-02-14T12:24:08;2.30;;;0.90;;
83732;SDS011;73710;49.968;8.338;2024-02-14T12:26:35;2.67;;;1.00;;
83732;SDS011;73710;49.968;8.338;2024-02-14T12:29:02;3.13;;;1.20;;
83732;SDS011;73710;49.968;8.338;2024-02-14T12:31:32;2.55;;;1.00;;
83732;SDS011;73710;49.968;8.338;2024-02-14T12:33:58;1.73;;;0.70;;
83732;SDS011;73710;49.968;8.338;2024-02-14T12:36:31;1.63;;;0.82;;
83732;SDS011;73710;49.968;8.338;2024-02-14T12:39:00;1.30;;;0.65;;
83732;SDS011;73710;49.968;8.338;2024-02-14T12:41:29;1.20;;;0.88;;
83732;SDS011;73710;49.968;8.338;2024-02-14T12:43:55;1.90;;;0.57;;
83732;SDS011;73710;49.968;8.338;2024-02-14T12:46:22;1.90;;;1.08;;
83732;SDS011;73710;49.968;8.338;2024-02-14T12:48:47;2.45;;;1.10;;
83732;SDS011;73710;49.968;8.338;2024-02-14T12:51:13;1.95;;;0.60;;
83732;SDS011;73710;49.968;8.338;2024-02-14T12:53:39;2.85;;;0.70;;
83732;SDS011;73710;49.968;8.338;2024-02-14T12:56:04;1.65;;;0.68;;
83732;SDS011;73710;49.968;8.338;2024-02-14T12:58:31;2.95;;;0.80;;
83732;SDS011;73710;49.968;8.338;2024-02-14T13:00:57;2.15;;;1.08;;
83732;SDS011;73710;49.968;8.338;2024-02-14T13:03:23;2.00;;;0.95;;
83732;SDS011;73710;49.968;8.338;2024-02-14T13:05:49;5.03;;;1.40;;
83732;SDS011;73710;49.968;8.338;2024-02-14T13:08:16;1.42;;;0.90;;
83732;SDS011;73710;49.968;8.338;2024-02-14T13:10:41;1.88;;;0.80;;
83732;SDS011;73710;49.968;8.338;2024-02-14T13:13:08;1.48;;;1.00;;
83732;SDS011;73710;49.968;8.338;2024-02-14T13:15:33;3.05;;;1.52;;
83732;SDS011;73710;49.968;8.338;2024-02-14T13:17:59;2.05;;;1.05;;
83732;SDS011;73710;49.968;8.338;2024-02-14T13:20:25;2.40;;;1.10;;
83732;SDS011;73710;49.968;8.338;2024-02-14T13:22:50;3.85;;;1.25;;
83732;SDS011;73710;49.968;8.338;2024-02-14T13:25:17;2.25;;;1.15;;
83732;SDS011;73710;49.968;8.338;2024-02-14T13:27:43;3.60;;;1.40;;
83732;SDS011;73710;49.968;8.338;2024-02-14T13:30:09;2.30;;;1.17;;
83732;SDS011;73710;49.968;8.338;2024-02-14T13:32:35;3.25;;;1.83;;
83732;SDS011;73710;49.968;8.338;2024-02-14T13:35:00;2.97;;;1.75;;
83732;SDS011;73710;49.968;8.338;2024-02-14T13:37:26;3.40;;;1.55;;
83732;SDS011;73710;49.968;8.338;2024-02-14T13:39:51;2.17;;;1.38;;
83732;SDS011;73710;49.968;8.338;2024-02-14T13:42:17;2.92;;;1.80;;
83732;SDS011;73710;49.968;8.338;2024-02-14T13:44:42;5.75;;;1.73;;
83732;SDS011;73710;49.968;8.338;2024-02-14T13:47:08;5.10;;;1.75;;
83732;SDS011;73710;49.968;8.338;2024-02-14T13:49:33;3.03;;;1.50;;
83732;SDS011;73710;49.968;8.338;2024-02-14T13:51:59;2.15;;;1.40;;
83732;SDS011;73710;49.968;8.338;2024-02-14T13:54:24;2.60;;;1.27;;
83732;SDS011;73710;49.968;8.338;2024-02-14T13:56:49;4.65;;;1.35;;
83732;SDS011;73710;49.968;8.338;2024-02-14T13:59:15;2.17;;;1.40;;
83732;SDS011;73710;49.968;8.338;2024-02-14T14:01:41;2.50;;;1.20;;
83732;SDS011;73710;49.968;8.338;2024-02-14T14:04:07;3.88;;;1.50;;
83732;SDS011;73710;49.968;8.338;2024-02-14T14:06:33;2.75;;;1.75;;
83732;SDS011;73710;49.968;8.338;2024-02-14T14:08:59;2.80;;;1.67;;
83732;SDS011;73710;49.968;8.338;2024-02-14T14:11:25;2.40;;;1.20;;
83732;SDS011;73710;49.968;8.338;2024-02-14T14:13:51;2.85;;;1.50;;
83732;SDS011;73710;49.968;8.338;2024-02-14T14:16:16;2.47;;;1.27;;
83732;SDS011;73710;49.968;8.338;2024-02-14T14:18:42;2.35;;;1.63;;
83732;SDS011;73710;49.968;8.338;2024-02-14T14:21:08;1.30;;;1.05;;
83732;SDS011;73710;49.968;8.338;2024-02-14T14:23:33;2.22;;;1.20;;
83732;SDS011;73710;49.968;8.338;2024-02-14T14:25:59;2.85;;;1.73;;
83732;SDS011;73710;49.968;8.338;2024-02-14T14:28:25;2.58;;;1.48;;
83732;SDS011;73710;49.968;8.338;2024-02-14T14:30:51;2.13;;;1.33;;
83732;SDS011;73710;49.968;8.338;2024-02-14T14:33:19;2.22;;;1.35;;
83732;SDS011;73710;49.968;8.338;2024-02-14T14:35:44;3.55;;;1.50;;
83732;SDS011;73710;49.968;8.338;2024-02-14T14:38:10;1.65;;;1.00;;
83732;SDS011;73710;49.968;8.338;2024-02-14T14:40:36;1.45;;;0.73;;
83732;SDS011;73710;49.968;8.338;2024-02-14T14:43:02;6.85;;;1.92;;
83732;SDS011;73710;49.968;8.338;2024-02-14T14:45:28;2.28;;;1.67;;
83732;SDS011;73710;49.968;8.338;2024-02-14T14:47:54;2.97;;;1.50;;
83732;SDS011;73710;49.968;8.338;2024-02-14T14:50:19;2.72;;;1.42;;
83732;SDS011;73710;49.968;8.338;2024-02-14T14:52:46;5.95;;;2.08;;
83732;SDS011;73710;49.968;8.338;2024-02-14T14:55:11;2.55;;;1.42;;
83732;SDS011;73710;49.968;8.338;2024-02-14T14:57:37;4.82;;;1.50;;
83732;SDS011;73710;49.968;8.338;2024-02-14T15:00:07;2.80;;;1.50;;
83732;SDS011;73710;49.968;8.338;2024-02-14T15:02:35;2.95;;;1.38;;
83732;SDS011;73710;49.968;8.338;2024-02-14T15:05:04;4.57;;;1.95;;
83732;SDS011;73710;49.968;8.338;2024-02-14T15:07:29;3.58;;;1.50;;
83732;SDS011;73710;49.968;8.338;2024-02-14T15:09:55;3.33;;;1.90;;
83732;SDS011;73710;49.968;8.338;2024-02-14T15:12:20;2.25;;;1.83;;
83732;SDS011;73710;49.968;8.338;2024-02-14T15:14:51;2.80;;;1.77;;
83732;SDS011;73710;49.968;8.338;2024-02-14T15:17:16;3.15;;;1.77;;
83732;SDS011;73710;49.968;8.338;2024-02-14T15:19:41;6.13;;;1.55;;
83732;SDS011;73710;49.968;8.338;2024-02-14T15:22:07;9.05;;;2.17;;
83732;SDS011;73710;49.968;8.338;2024-02-14T15:24:33;4.28;;;2.33;;
83732;SDS011;73710;49.968;8.338;2024-02-14T15:27:00;4.78;;;1.95;;
83732;SDS011;73710;49.968;8.338;2024-02-14T15:29:27;2.97;;;1.80;;
83732;SDS011;73710;49.968;8.338;2024-02-14T15:32:12;4.53;;;1.92;;
83732;SDS011;73710;49.968;8.338;2024-02-14T15:34:56;3.75;;;1.67;;
83732;SDS011;73710;49.968;8.338;2024-02-14T15:37:21;3.30;;;1.63;;
83732;SDS011;73710;49.968;8.338;2024-02-14T15:39:47;2.45;;;1.38;;
83732;SDS011;73710;49.968;8.338;2024-02-14T15:42:13;4.75;;;1.77;;
83732;SDS011;73710;49.968;8.338;2024-02-14T15:44:38;2.58;;;1.67;;
83732;SDS011;73710;49.968;8.338;2024-02-14T15:47:04;2.65;;;1.63;;
83732;SDS011;73710;49.968;8.338;2024-02-14T15:49:29;4.28;;;1.80;;
83732;SDS011;73710;49.968;8.338;2024-02-14T15:51:55;5.72;;;1.60;;
83732;SDS011;73710;49.968;8.338;2024-02-14T15:54:20;3.25;;;2.00;;
83732;SDS011;73710;49.968;8.338;2024-02-14T15:56:46;4.25;;;2.40;;
83732;SDS011;73710;49.968;8.338;2024-02-14T15:59:12;2.72;;;1.75;;
83732;SDS011;73710;49.968;8.338;2024-02-14T16:01:40;5.45;;;1.58;;
83732;SDS011;73710;49.968;8.338;2024-02-14T16:04:06;3.40;;;1.75;;
83732;SDS011;73710;49.968;8.338;2024-02-14T16:06:32;2.80;;;1.38;;
83732;SDS011;73710;49.968;8.338;2024-02-14T16:09:00;2.95;;;1.30;;
83732;SDS011;73710;49.968;8.338;2024-02-14T16:11:28;3.08;;;1.20;;
83732;SDS011;73710;49.968;8.338;2024-02-14T16:13:54;1.98;;;1.20;;
83732;SDS011;73710;49.968;8.338;2024-02-14T16:16:20;1.77;;;1.20;;
83732;SDS011;73710;49.968;8.338;2024-02-14T16:18:45;1.65;;;1.10;;
83732;SDS011;73710;49.968;8.338;2024-02-14T16:21:10;4.28;;;1.80;;
83732;SDS011;73710;49.968;8.338;2024-02-14T16:23:36;2.75;;;1.10;;
83732;SDS011;73710;49.968;8.338;2024-02-14T16:26:01;2.38;;;1.50;;
83732;SDS011;73710;49.968;8.338;2024-02-14T16:28:26;4.45;;;1.13;;
83732;SDS011;73710;49.968;8.338;2024-02-14T16:30:52;4.85;;;1.48;;
83732;SDS011;73710;49.968;8.338;2024-02-14T16:33:18;2.75;;;1.35;;
83732;SDS011;73710;49.968;8.338;2024-02-14T16:35:43;2.20;;;1.02;;
83732;SDS011;73710;49.968;8.338;2024-02-14T16:38:09;2.08;;;1.00;;
83732;SDS011;73710;49.968;8.338;2024-02-14T16:40:34;2.53;;;1.17;;
83732;SDS011;73710;49.968;8.338;2024-02-14T16:43:00;2.75;;;1.30;;
83732;SDS011;73710;49.968;8.338;2024-02-14T16:45:25;2.72;;;1.13;;
83732;SDS011;73710;49.968;8.338;2024-02-14T16:47:51;4.10;;;1.65;;
83732;SDS011;73710;49.968;8.338;2024-02-14T16:50:17;2.53;;;1.40;;
83732;SDS011;73710;49.968;8.338;2024-02-14T16:52:43;3.33;;;1.77;;
83732;SDS011;73710;49.968;8.338;2024-02-14T16:55:09;5.38;;;2.33;;
83732;SDS011;73710;49.968;8.338;2024-02-14T16:57:35;3.67;;;2.17;;
83732;SDS011;73710;49.968;8.338;2024-02-14T17:00:00;2.63;;;1.50;;
83732;SDS011;73710;49.968;8.338;2024-02-14T17:02:25;3.60;;;1.42;;
83732;SDS011;73710;49.968;8.338;2024-02-14T17:04:51;2.55;;;1.80;;
83732;SDS011;73710;49.968;8.338;2024-02-14T17:07:16;2.30;;;1.52;;
83732;SDS011;73710;49.968;8.338;2024-02-14T17:09:42;2.90;;;1.55;;
83732;SDS011;73710;49.968;8.338;2024-02-14T17:12:07;5.95;;;3.15;;
83732;SDS011;73710;49.968;8.338;2024-02-14T17:14:33;4.13;;;2.55;;
83732;SDS011;73710;49.968;8.338;2024-02-14T17:16:59;4.00;;;1.73;;
83732;SDS011;73710;49.968;8.338;2024-02-14T17:19:25;2.60;;;1.52;;
83732;SDS011;73710;49.968;8.338;2024-02-14T17:21:50;2.13;;;1.40;;
83732;SDS011;73710;49.968;8.338;2024-02-14T17:24:16;3.15;;;1.45;;
83732;SDS011;73710;49.968;8.338;2024-02-14T17:26:41;4.63;;;2.53;;
83732;SDS011;73710;49.968;8.338;2024-02-14T17:29:07;5.15;;;1.98;;
83732;SDS011;73710;49.968;8.338;2024-02-14T17:31:35;3.97;;;2.33;;
83732;SDS011;73710;49.968;8.338;2024-02-14T17:34:02;6.88;;;2.53;;
83732;SDS011;73710;49.968;8.338;2024-02-14T17:36:31;2.60;;;1.58;;
83732;SDS011;73710;49.968;8.338;2024-02-14T17:38:57;6.93;;;2.03;;
83732;SDS011;73710;49.968;8.338;2024-02-14T17:41:29;3.00;;;1.70;;
83732;SDS011;73710;49.968;8.338;2024-02-14T17:43:58;2.22;;;1.20;;
83732;SDS011;73710;49.968;8.338;2024-02-14T17:46:26;1.88;;;1.30;;
83732;SDS011;73710;49.968;8.338;2024-02-14T17:48:52;2.20;;;1.33;;
83732;SDS011;73710;49.968;8.338;2024-02-14T17:51:19;2.70;;;2.28;;
83732;SDS011;73710;49.968;8.338;2024-02-14T17:53:45;1.88;;;1.17;;
83732;SDS011;73710;49.968;8.338;2024-02-14T17:56:11;2.15;;;1.35;;
83732;SDS011;73710;49.968;8.338;2024-02-14T17:58:36;3.65;;;1.67;;
83732;SDS011;73710;49.968;8.338;2024-02-14T18:01:02;2.63;;;1.20;;
83732;SDS011;73710;49.968;8.338;2024-02-14T18:03:27;2.33;;;1.08;;
83732;SDS011;73710;49.968;8.338;2024-02-14T18:05:53;2.08;;;1.15;;
83732;SDS011;73710;49.968;8.338;2024-02-14T18:08:18;2.95;;;1.40;;
83732;SDS011;73710;49.968;8.338;2024-02-14T18:10:44;3.25;;;1.35;;
83732;SDS011;73710;49.968;8.338;2024-02-14T18:13:11;1.92;;;1.40;;
83732;SDS011;73710;49.968;8.338;2024-02-14T18:15:37;1.77;;;0.93;;
83732;SDS011;73710;49.968;8.338;2024-02-14T18:18:04;2.53;;;1.08;;
83732;SDS011;73710;49.968;8.338;2024-02-14T18:20:31;1.60;;;1.02;;
83732;SDS011;73710;49.968;8.338;2024-02-14T18:22:58;3.42;;;1.10;;
83732;SDS011;73710;49.968;8.338;2024-02-14T18:25:24;2.25;;;1.00;;
83732;SDS011;73710;49.968;8.338;2024-02-14T18:27:49;2.00;;;1.25;;
83732;SDS011;73710;49.968;8.338;2024-02-14T18:30:15;1.92;;;1.35;;
83732;SDS011;73710;49.968;8.338;2024-02-14T18:32:40;1.85;;;1.05;;
83732;SDS011;73710;49.968;8.338;2024-02-14T18:35:06;3.35;;;1.48;;
83732;SDS011;73710;49.968;8.338;2024-02-14T18:37:32;2.75;;;1.75;;
83732;SDS011;73710;49.968;8.338;2024-02-14T18:39:58;2.97;;;1.55;;
83732;SDS011;73710;49.968;8.338;2024-02-14T18:42:24;2.83;;;1.77;;
83732;SDS011;73710;49.968;8.338;2024-02-14T18:44:49;1.73;;;1.23;;
83732;SDS011;73710;49.968;8.338;2024-02-14T18:47:15;2.92;;;1.60;;
83732;SDS011;73710;49.968;8.338;2024-02-14T18:49:40;2.47;;;1.40;;
83732;SDS011;73710;49.968;8.338;2024-02-14T18:52:09;2.53;;;1.17;;
83732;SDS011;73710;49.968;8.338;2024-02-14T18:54:38;1.95;;;1.20;;
83732;SDS011;73710;49.968;8.338;2024-02-14T18:57:03;1.77;;;1.20;;
83732;SDS011;73710;49.968;8.338;2024-02-14T18:59:38;1.58;;;1.08;;
83732;SDS011;73710;49.968;8.338;2024-02-14T19:02:04;2.47;;;1.67;;
83732;SDS011;73710;49.968;8.338;2024-02-14T19:04:30;2.03;;;1.08;;
83732;SDS011;73710;49.968;8.338;2024-02-14T19:06:56;2.60;;;1.00;;
83732;SDS011;73710;49.968;8.338;2024-02-14T19:09:21;2.63;;;1.33;;
83732;SDS011;73710;49.968;8.338;2024-02-14T19:11:47;2.40;;;1.33;;
83732;SDS011;73710;49.968;8.338;2024-02-14T19:14:12;1.50;;;1.02;;
83732;SDS011;73710;49.968;8.338;2024-02-14T19:16:38;2.38;;;1.33;;
83732;SDS011;73710;49.968;8.338;2024-02-14T19:19:03;2.75;;;1.25;;
83732;SDS011;73710;49.968;8.338;2024-02-14T19:21:30;2.08;;;1.20;;
83732;SDS011;73710;49.968;8.338;2024-02-14T19:23:56;2.35;;;1.52;;
83732;SDS011;73710;49.968;8.338;2024-02-14T19:26:22;3.60;;;1.48;;
83732;SDS011;73710;49.968;8.338;2024-02-14T19:28:47;3.42;;;1.30;;
83732;SDS011;73710;49.968;8.338;2024-02-14T19:31:13;2.78;;;1.55;;
83732;SDS011;73710;49.968;8.338;2024-02-14T19:33:39;1.55;;;1.00;;
83732;SDS011;73710;49.968;8.338;2024-02-14T19:36:04;2.83;;;1.17;;
83732;SDS011;73710;49.968;8.338;2024-02-14T19:38:32;3.05;;;1.45;;
83732;SDS011;73710;49.968;8.338;2024-02-14T19:40:58;4.47;;;1.60;;
83732;SDS011;73710;49.968;8.338;2024-02-14T19:43:23;3.03;;;1.65;;
83732;SDS011;73710;49.968;8.338;2024-02-14T19:45:51;1.63;;;1.30;;
83732;SDS011;73710;49.968;8.338;2024-02-14T19:48:17;1.52;;;1.05;;
83732;SDS011;73710;49.968;8.338;2024-02-14T19:50:42;4.03;;;1.73;;
83732;SDS011;73710;49.968;8.338;2024-02-14T19:53:09;2.38;;;1.40;;
83732;SDS011;73710;49.968;8.338;2024-02-14T19:55:34;4.13;;;1.58;;